• Join FlightAware (Why Join?)
  • Login
  • US Flag 
04:37PM EDT


 

Airport Tracker/Info


-or-


 

Live Flight TrackerFlight Track Log ✈ UAL4528 ✈ 22-Apr-2013 ✈ KIAH - KLBB

Flight Track Log - Related Links

Times and Time Zones

All times are in EDT time to prevent confusion due to time zone crossing. See the UAL4528 flight status page for this flight to view local times or setup timezone preferences in your user account.

Time Position Orientation Groundspeed Altitude Reporting Facility
EDT Latitude Longitude Course Direction KTS MPH feet Rate Location/Type
06:49PM 29.9597 -95.3439 276° West 158 182 900  Level Houston Center
06:49PM 29.9453 -95.3481 194° South 164 189 1,500 1,500 Climbing Houston Center
06:50PM 29.9222 -95.3833 233° Southwest 234 269 2,500 1,860 Climbing Houston Center
06:50PM 29.9064 -95.4056 231° Southwest 246 283 3,400 2,820 Climbing Houston Center
06:51PM 29.8711 -95.4797 241° Southwest 262 302 6,200 2,220 Climbing Houston Center
06:52PM 30.0196 -95.6760 277° West  Level FlightAware Approximate
06:52PM 29.8767 -95.5272 278° West 255 293 7,400  Level Houston Center
06:53PM 30.0323 -95.7906 277° West  Level FlightAware Approximate
06:53PM 29.9083 -95.6236 291° West 267 307 10,200  Level Houston Center
06:54PM 30.0422 -95.9056 276° West  Level FlightAware Approximate
06:54PM 29.9414 -95.7125 293° West 286 329 11,000  Level Houston Center
06:55PM 29.9767 -95.8119 292° West 332 382 11,900 960 Climbing Houston Center
06:56PM 30.0172 -95.9181 294° West 355 409 13,000 1,020 Climbing Houston Center
06:57PM 30.0547 -96.0231 292° West 358 412 14,100 1,020 Climbing Houston Center
06:58PM 30.0808 -96.1336 285° West 358 412 15,200 1,200 Climbing Houston Center
06:59PM 30.1022 -96.2706 280° West 363 418 16,600 1,200 Climbing Houston Center
07:00PM 30.1203 -96.3850 280° West 364 419 17,700 1,020 Climbing Houston Center
07:01PM 30.1356 -96.4900 280° West 362 417 18,800 1,140 Climbing Houston Center
07:02PM 30.1569 -96.6272 280° West 366 421 20,100 1,200 Climbing Houston Center
07:03PM 30.1747 -96.7475 280° West 373 429 21,300 1,080 Climbing Houston Center
07:05PM 30.1933 -96.8681 280° West 376 433 22,400 840 Climbing Houston Center
07:06PM 30.2111 -96.9931 279° West 386 444 23,100 780 Climbing Houston Center
07:07PM 30.2297 -97.1175 280° West 389 448 24,000 900 Climbing Houston Center
07:08PM 30.2481 -97.2431 280° West 391 450 25,000 900 Climbing Houston Center
07:09PM 30.2664 -97.3678 280° West 387 445 25,900 900 Climbing Houston Center
07:10PM 30.2850 -97.4939 280° West 391 450 26,900 900 Climbing Houston Center
07:11PM 30.3019 -97.6178 279° West 387 445 27,800 900 Climbing Houston Center
07:12PM 30.3200 -97.7386 280° West 379 436 28,800 960 Climbing Houston Center
07:13PM 30.3400 -97.8811 279° West 379 436 29,900 960 Climbing Houston Center
07:14PM 30.3586 -98.0017 280° West 377 434 30,900 780 Climbing Houston Center
07:15PM 30.4044 -98.1158 295° West 389 448 31,600 480 Climbing Houston Center
07:16PM 30.4547 -98.2297 297° West 393 452 32,000 180 Climbing Houston Center
07:17PM 30.5033 -98.3456 296° West 394 453 32,000  Level Houston Center
07:18PM 30.5517 -98.4589 296° West 389 448 32,000  Level Houston Center
07:19PM 30.6006 -98.5736 296° West 391 450 32,000  Level Houston Center
07:20PM 30.6486 -98.6875 296° West 390 449 32,000  Level Houston Center
07:21PM 30.6958 -98.7997 296° West 384 442 32,000  Level Houston Center
07:22PM 30.7514 -98.9311 296° West 385 443 32,000  Level Houston Center
07:23PM 30.7989 -99.0472 295° West 390 449 32,000  Level Houston Center
07:24PM 30.8481 -99.1631 296° West 393 452 32,000  Level Houston Center
07:25PM 30.8953 -99.2769 296° West 393 452 32,000  Level Houston Center
07:26PM 30.9433 -99.3928 296° West 397 457 32,000  Level Houston Center
07:27PM 30.9897 -99.5053 296° West 390 449 32,000  Level Houston Center
07:28PM 31.0369 -99.6192 296° West 394 453 32,000  Level Houston Center
07:29PM 31.0914 -99.7522 296° West 389 448 32,000  Level Houston Center
07:30PM 31.1378 -99.8669 295° West 401 461 32,000  Level Houston Center
07:31PM 31.1839 -99.9819 295° West 396 456 32,000  Level Houston Center
07:32PM 31.2322 -100.1006 296° West 406 467 32,000  Level Houston Center
07:33PM 31.2800 -100.2158 296° West 402 463 32,000  Level Houston Center
07:34PM 31.3261 -100.3322 295° West 400 460 32,000  Level Houston Center
07:35PM 31.3692 -100.4325 297° West 400 460 32,000  Level Fort Worth Center
07:36PM 31.4611 -100.5061 326° Northwest 386 444 32,000  Level Fort Worth Center
07:37PM 31.5664 -100.5633 335° Northwest 393 452 32,000  Level Fort Worth Center
07:38PM 31.6669 -100.6253 332° Northwest 403 464 32,000  Level Fort Worth Center
07:39PM 31.7417 -100.7208 313° West 403 464 32,000  Level Fort Worth Center
07:40PM 31.8078 -100.8333 305° West 402 463 32,000  Level Fort Worth Center
07:41PM 31.8714 -100.9433 304° West 407 468 32,000  Level Fort Worth Center
07:42PM 31.9350 -101.0558 304° West 418 481 32,000  Level Fort Worth Center
07:43PM 32.0006 -101.1664 305° West 413 475 32,000  Level Fort Worth Center
07:44PM 32.0661 -101.2767 305° West 407 468 32,000  Level Fort Worth Center
07:45PM 32.1294 -101.3897 304° West 407 468 32,000  Level Fort Worth Center
07:46PM 32.1906 -101.5031 303° West 407 468 32,000  Level Fort Worth Center
07:47PM 32.2558 -101.6139 305° West 407 468 32,000  Level Fort Worth Center
07:48PM 32.3189 -101.7250 304° West 407 468 32,000  Level Fort Worth Center
07:49PM 32.3797 -101.8336 304° West 402 463 32,000  Level Fort Worth Center
07:50PM 32.4406 -101.9425 304° West 402 463 32,000 -60 Level Fort Worth Center
07:51PM 32.5097 -102.0494 308° West 402 463 31,900 -780 Descending Fort Worth Center
07:52PM 32.6208 -102.0897 343° North 395 455 30,500 -1,800 Descending Fort Worth Center
07:53PM 32.7600 -102.0500 13° North 402 463 28,300 -2,160 Descending Fort Worth Center
07:54PM 32.8444 -102.0297 11° North 442 509 26,800 -2,100 Descending Fort Worth Center
07:54PM 32.8886 -102.0172 13° North 433 498 26,000 -2,160 Descending Fort Worth Center
07:55PM 32.9939 -101.9903 12° North 423 487 24,100 -2,340 Descending Fort Worth Center
07:56PM 33.1033 -101.9711 North 403 464 21,700 -3,180 Descending Fort Worth Center
07:57PM 33.2036 -101.9614 North 367 422 17,800 -3,660 Descending Fort Worth Center
07:58PM 33.2986 -101.9342 13° North 354 407 14,400 -3,660 Descending Fort Worth Center
07:59PM 33.3917 -101.8992 17° North 346 398 10,500 -2,700 Descending Fort Worth Center
08:00PM 33.4722 -101.8658 19° North 328 377 9,100 -2,100 Descending Fort Worth Center
08:01PM 33.5369 -101.8092 36° Northeast 290 334 6,400 -2,700 Descending Fort Worth Center